createdAt,value
2017-08-26T00:00:26.917Z,10.83
2017-08-26T00:01:35.180Z,11.20
2017-08-26T00:02:43.371Z,11.50
2017-08-26T00:03:45.931Z,11.90
2017-08-26T00:04:49.011Z,12.33
2017-08-26T00:05:51.790Z,11.20
2017-08-26T00:06:54.358Z,11.90
2017-08-26T00:07:56.899Z,11.93
2017-08-26T00:09:00.204Z,12.00
2017-08-26T00:10:03.579Z,11.57
2017-08-26T00:11:06.211Z,10.90
2017-08-26T00:12:09.869Z,11.20
2017-08-26T00:13:15.343Z,11.27
2017-08-26T00:14:22.790Z,10.70
2017-08-26T00:15:25.686Z,11.20
2017-08-26T00:16:31.933Z,11.03
2017-08-26T00:17:34.918Z,10.57
2017-08-26T00:18:37.506Z,10.47
2017-08-26T00:19:41.086Z,11.40
2017-08-26T00:20:43.760Z,11.27
2017-08-26T00:21:46.306Z,10.77
2017-08-26T00:22:48.944Z,11.47
2017-08-26T00:23:51.542Z,10.13
2017-08-26T00:24:54.180Z,11.37
2017-08-26T00:25:56.816Z,10.93
2017-08-26T00:26:59.446Z,11.37
2017-08-26T00:28:02.802Z,9.83
2017-08-26T00:29:05.421Z,10.50
2017-08-26T00:30:08.045Z,10.23
2017-08-26T00:31:10.670Z,10.97
2017-08-26T00:32:13.201Z,11.30
2017-08-26T00:33:15.742Z,11.77
2017-08-26T00:34:18.352Z,10.53
2017-08-26T00:35:20.974Z,10.70
2017-08-26T00:36:23.610Z,10.47
2017-08-26T00:37:26.159Z,11.33
2017-08-26T00:38:28.774Z,9.73
2017-08-26T00:39:32.611Z,10.20
2017-08-26T00:40:35.245Z,10.30
2017-08-26T00:41:37.958Z,11.17
2017-08-26T00:42:40.587Z,10.03
2017-08-26T00:43:43.314Z,10.30
2017-08-26T00:44:46.048Z,10.17
2017-08-26T00:45:48.600Z,9.60
2017-08-26T00:46:51.118Z,9.80
2017-08-26T00:47:53.737Z,10.70
2017-08-26T00:48:56.454Z,10.60
2017-08-26T00:49:58.995Z,9.93
2017-08-26T00:51:01.614Z,9.67
2017-08-26T00:52:04.145Z,10.13
2017-08-26T00:53:06.783Z,9.80
2017-08-26T00:54:09.439Z,10.97
2017-08-26T00:55:11.987Z,9.60
2017-08-26T00:56:14.547Z,11.37
2017-08-26T00:57:17.191Z,10.60
2017-08-26T00:58:19.751Z,10.40
2017-08-26T00:59:22.286Z,9.97
2017-08-26T01:00:24.866Z,11.13
2017-08-26T01:01:27.411Z,10.63
2017-08-26T01:02:30.727Z,11.10
2017-08-26T01:03:33.253Z,10.63
2017-08-26T01:04:35.887Z,11.90
2017-08-26T01:05:38.434Z,11.23
2017-08-26T01:06:40.978Z,11.07
2017-08-26T01:07:43.525Z,11.53
2017-08-26T01:08:46.082Z,10.37
2017-08-26T01:09:48.620Z,11.43
2017-08-26T01:10:51.334Z,11.60
2017-08-26T01:11:53.897Z,11.53
2017-08-26T01:12:56.448Z,11.40
2017-08-26T01:13:59.000Z,11.40
2017-08-26T01:15:01.555Z,10.27
2017-08-26T01:16:04.882Z,11.33
2017-08-26T01:17:08.026Z,11.17
2017-08-26T01:18:10.751Z,11.00
2017-08-26T01:19:13.381Z,11.20
2017-08-26T01:20:15.929Z,10.77
2017-08-26T01:21:18.472Z,11.53
2017-08-26T01:22:21.014Z,10.13
2017-08-26T01:23:23.548Z,10.23
2017-08-26T01:24:26.091Z,10.57
2017-08-26T01:25:28.618Z,10.57
2017-08-26T01:26:31.146Z,10.97
2017-08-26T01:27:33.688Z,10.17
2017-08-26T01:28:36.243Z,10.60
2017-08-26T01:29:38.796Z,10.93
2017-08-26T01:30:41.334Z,11.30
2017-08-26T01:31:43.854Z,9.80
2017-08-26T01:32:46.437Z,12.00
2017-08-26T01:33:49.049Z,11.33
2017-08-26T01:34:51.586Z,10.53
2017-08-26T01:35:54.198Z,10.80
2017-08-26T01:37:01.581Z,10.07
2017-08-26T01:38:04.113Z,9.77
2017-08-26T01:39:06.669Z,11.40
2017-08-26T01:40:09.211Z,10.37
2017-08-26T01:41:11.942Z,10.80
2017-08-26T01:42:14.484Z,11.47
2017-08-26T01:43:17.006Z,10.40
2017-08-26T01:44:19.644Z,10.70
2017-08-26T01:45:22.353Z,11.10
2017-08-26T01:46:25.527Z,11.60
2017-08-26T01:47:28.548Z,10.63
2017-08-26T01:48:31.176Z,10.47
2017-08-26T01:49:33.888Z,10.17
2017-08-26T01:50:36.543Z,10.40
2017-08-26T01:51:39.170Z,10.90
2017-08-26T01:52:41.701Z,10.93
2017-08-26T01:53:44.243Z,10.03
2017-08-26T01:54:46.854Z,10.97
2017-08-26T01:55:49.552Z,10.80
2017-08-26T01:56:52.194Z,10.47
2017-08-26T01:57:54.731Z,10.30
2017-08-26T01:58:57.292Z,11.00
2017-08-26T01:59:59.870Z,9.90
2017-08-26T02:01:02.496Z,9.43
2017-08-26T02:02:05.017Z,9.57
2017-08-26T02:03:08.112Z,11.13
2017-08-26T02:04:10.666Z,10.77
2017-08-26T02:05:13.231Z,10.97
2017-08-26T02:06:15.779Z,10.90
2017-08-26T02:07:18.384Z,10.13
2017-08-26T02:08:20.920Z,9.90
2017-08-26T02:09:23.527Z,10.70
2017-08-26T02:10:26.151Z,10.20
2017-08-26T02:11:29.335Z,9.67
2017-08-26T02:12:32.008Z,9.80
2017-08-26T02:13:34.662Z,10.37
2017-08-26T02:14:37.595Z,9.30
2017-08-26T02:15:40.217Z,9.93
2017-08-26T02:16:43.031Z,9.97
2017-08-26T02:17:45.578Z,9.87
2017-08-26T02:18:48.118Z,9.30
2017-08-26T02:19:51.130Z,10.20
2017-08-26T02:20:53.753Z,9.23
2017-08-26T02:21:56.282Z,10.57
2017-08-26T02:22:59.601Z,9.33
2017-08-26T02:24:02.136Z,8.40
2017-08-26T02:25:04.798Z,10.00
2017-08-26T02:26:07.414Z,9.60
2017-08-26T02:27:10.043Z,11.10
2017-08-26T02:28:12.661Z,10.33
2017-08-26T02:29:15.190Z,9.60
2017-08-26T02:30:17.760Z,9.63
2017-08-26T02:31:20.308Z,10.40
2017-08-26T02:32:22.963Z,9.93
2017-08-26T02:33:25.600Z,9.63
2017-08-26T02:34:28.235Z,9.43
2017-08-26T02:35:31.167Z,10.33
2017-08-26T02:36:33.799Z,9.97
2017-08-26T02:37:37.147Z,9.13
2017-08-26T02:38:39.770Z,9.60
2017-08-26T02:39:42.303Z,9.57
2017-08-26T02:40:44.834Z,9.50
2017-08-26T02:41:47.439Z,9.97
2017-08-26T02:42:50.075Z,11.10
2017-08-26T02:43:52.698Z,10.47
2017-08-26T02:44:55.331Z,10.10
2017-08-26T02:45:58.662Z,9.50
2017-08-26T02:47:02.565Z,10.40
2017-08-26T02:48:05.216Z,9.10
2017-08-26T02:49:07.784Z,9.37
2017-08-26T02:50:10.319Z,10.70
2017-08-26T02:51:12.847Z,9.13
2017-08-26T02:52:15.474Z,9.57
2017-08-26T02:53:18.001Z,9.23
2017-08-26T02:54:21.442Z,10.43
2017-08-26T02:55:24.177Z,10.33
2017-08-26T02:56:26.800Z,9.20
2017-08-26T02:57:29.426Z,9.17
2017-08-26T02:58:32.048Z,9.33
2017-08-26T02:59:34.679Z,9.07
2017-08-26T03:00:37.236Z,9.00
2017-08-26T03:01:39.847Z,9.03
2017-08-26T03:02:42.461Z,8.50
2017-08-26T03:03:45.091Z,10.17
2017-08-26T03:04:48.114Z,9.07
2017-08-26T03:05:51.442Z,8.63
2017-08-26T03:06:54.062Z,9.30
2017-08-26T03:07:57.492Z,9.50
2017-08-26T03:09:00.039Z,9.70
2017-08-26T03:10:02.613Z,8.90
2017-08-26T03:11:05.311Z,9.30
2017-08-26T03:12:07.970Z,9.93
2017-08-26T03:13:10.673Z,8.60
2017-08-26T03:14:13.934Z,9.43
2017-08-26T03:15:16.557Z,8.97
2017-08-26T03:16:19.184Z,9.57
2017-08-26T03:17:21.823Z,9.40
2017-08-26T03:18:24.740Z,8.40
2017-08-26T03:19:28.076Z,9.60
2017-08-26T03:20:30.633Z,9.83
2017-08-26T03:21:33.172Z,8.70
2017-08-26T03:22:35.753Z,8.80
2017-08-26T03:23:38.382Z,8.20
2017-08-26T03:24:41.027Z,9.30
2017-08-26T03:25:43.958Z,10.03
2017-08-26T03:26:46.482Z,9.17
2017-08-26T03:27:49.014Z,9.80
2017-08-26T03:28:51.537Z,9.60
2017-08-26T03:29:54.167Z,8.67
2017-08-26T03:30:56.796Z,9.20
2017-08-26T03:31:59.512Z,9.73
2017-08-26T03:33:02.156Z,9.47
2017-08-26T03:34:04.699Z,9.63
2017-08-26T03:35:08.001Z,9.40
2017-08-26T03:36:10.656Z,9.73
2017-08-26T03:37:13.192Z,8.27
2017-08-26T03:38:15.816Z,8.23
2017-08-26T03:39:18.337Z,9.10
2017-08-26T03:40:21.019Z,9.10
2017-08-26T03:41:23.981Z,8.80
2017-08-26T03:42:26.521Z,8.90
2017-08-26T03:43:29.081Z,10.53
2017-08-26T03:44:31.615Z,8.67
2017-08-26T03:45:34.167Z,8.73
2017-08-26T03:46:37.276Z,8.83
2017-08-26T03:47:39.863Z,9.20
2017-08-26T03:48:43.003Z,9.77
2017-08-26T03:49:45.635Z,9.10
2017-08-26T03:50:48.252Z,9.60
2017-08-26T03:51:50.830Z,8.67
2017-08-26T03:52:53.412Z,8.53
2017-08-26T03:53:55.957Z,9.13
2017-08-26T03:54:58.513Z,10.17
2017-08-26T03:56:01.083Z,8.80
2017-08-26T03:57:03.727Z,9.47
2017-08-26T03:58:06.259Z,9.23
2017-08-26T03:59:08.805Z,9.43
2017-08-26T04:00:11.415Z,9.60
2017-08-26T04:01:13.958Z,8.90
2017-08-26T04:02:16.651Z,8.70
2017-08-26T04:03:19.194Z,9.00
2017-08-26T04:04:21.727Z,9.07
2017-08-26T04:05:25.066Z,9.50
2017-08-26T04:06:27.678Z,8.83
2017-08-26T04:07:30.266Z,9.63
2017-08-26T04:08:32.797Z,9.73
2017-08-26T04:09:35.336Z,8.57
2017-08-26T04:10:38.907Z,8.83
2017-08-26T04:11:41.850Z,9.00
2017-08-26T04:12:44.467Z,9.70
2017-08-26T04:13:47.017Z,8.50
2017-08-26T04:14:49.541Z,8.67
2017-08-26T04:15:52.147Z,8.73
2017-08-26T04:16:54.682Z,9.73
2017-08-26T04:17:57.273Z,8.90
2017-08-26T04:18:59.814Z,8.53
2017-08-26T04:20:02.351Z,8.30
2017-08-26T04:21:05.067Z,8.70
2017-08-26T04:22:07.600Z,9.23
2017-08-26T04:23:10.189Z,9.50
2017-08-26T04:24:12.717Z,8.40
2017-08-26T04:25:15.265Z,9.10
2017-08-26T04:26:17.812Z,10.13
2017-08-26T04:27:20.355Z,8.27
2017-08-26T04:28:22.922Z,8.33
2017-08-26T04:29:25.467Z,8.10
2017-08-26T04:30:28.008Z,9.00
2017-08-26T04:31:30.560Z,8.97
2017-08-26T04:32:33.184Z,9.03
2017-08-26T04:33:35.773Z,9.00
2017-08-26T04:34:38.305Z,7.97
2017-08-26T04:35:40.853Z,8.90
2017-08-26T04:36:43.491Z,9.20
2017-08-26T04:37:46.094Z,9.30
2017-08-26T04:38:48.723Z,8.60
2017-08-26T04:39:51.362Z,8.93
2017-08-26T04:40:54.702Z,9.40
2017-08-26T04:41:57.336Z,8.67
2017-08-26T04:42:59.952Z,8.90
2017-08-26T04:44:02.676Z,8.10
2017-08-26T04:45:05.217Z,9.07
2017-08-26T04:46:08.244Z,8.23
2017-08-26T04:47:11.567Z,7.83
2017-08-26T04:48:14.092Z,8.70
2017-08-26T04:49:17.158Z,8.60
2017-08-26T04:50:19.786Z,8.50
2017-08-26T04:51:22.326Z,8.43
2017-08-26T04:52:24.854Z,8.30
2017-08-26T04:53:27.397Z,8.50
2017-08-26T04:54:29.995Z,7.83
2017-08-26T04:55:32.627Z,7.13
2017-08-26T04:56:35.158Z,7.63
2017-08-26T04:57:38.578Z,8.20
2017-08-26T04:58:41.123Z,8.07
2017-08-26T04:59:43.741Z,7.53
2017-08-26T05:00:46.383Z,7.97
2017-08-26T05:01:49.723Z,7.97
2017-08-26T05:02:52.332Z,8.30
2017-08-26T05:03:54.969Z,8.63
2017-08-26T05:04:57.545Z,8.40
2017-08-26T05:06:00.135Z,8.10
2017-08-26T05:07:02.680Z,8.10
2017-08-26T05:08:05.274Z,8.00
2017-08-26T05:09:07.791Z,7.40
2017-08-26T05:10:10.364Z,7.50
2017-08-26T05:11:12.909Z,8.50
2017-08-26T05:12:15.476Z,7.27
2017-08-26T05:13:18.018Z,8.03
2017-08-26T05:14:20.584Z,8.53
2017-08-26T05:15:23.168Z,8.40
2017-08-26T05:16:25.802Z,7.07
2017-08-26T05:17:28.348Z,8.20
2017-08-26T05:18:30.950Z,7.80
2017-08-26T05:19:33.492Z,8.20
2017-08-26T05:20:36.061Z,7.70
2017-08-26T05:21:38.714Z,7.53
2017-08-26T05:22:41.242Z,8.87
2017-08-26T05:23:44.277Z,8.00
2017-08-26T05:24:46.826Z,9.03
2017-08-26T05:25:49.450Z,7.70
2017-08-26T05:26:52.075Z,8.40
2017-08-26T05:27:54.606Z,7.87
2017-08-26T05:28:57.315Z,8.80
2017-08-26T05:29:59.971Z,7.57
2017-08-26T05:31:02.586Z,7.63
2017-08-26T05:32:05.119Z,8.30
2017-08-26T05:33:07.747Z,7.97
2017-08-26T05:34:10.375Z,8.20
2017-08-26T05:35:13.005Z,8.67
2017-08-26T05:36:15.611Z,7.90
2017-08-26T05:37:18.149Z,7.90
2017-08-26T05:38:20.773Z,8.43
2017-08-26T05:39:23.393Z,8.77
2017-08-26T05:40:25.930Z,7.47
2017-08-26T05:41:28.554Z,9.60
2017-08-26T05:42:31.091Z,8.37
2017-08-26T05:43:33.719Z,8.47
2017-08-26T05:44:37.052Z,8.17
2017-08-26T05:45:40.300Z,7.90
2017-08-26T05:46:42.880Z,7.97
2017-08-26T05:47:45.452Z,7.50
2017-08-26T05:48:48.000Z,8.20
2017-08-26T05:49:50.604Z,8.30
2017-08-26T05:50:53.151Z,7.30
2017-08-26T05:51:55.726Z,7.83
2017-08-26T05:52:58.262Z,7.63
2017-08-26T05:54:00.805Z,8.30
2017-08-26T05:55:03.346Z,7.63
2017-08-26T05:56:05.917Z,7.63
2017-08-26T05:57:08.594Z,8.27
2017-08-26T05:58:11.695Z,7.63
2017-08-26T05:59:14.230Z,7.20
2017-08-26T06:00:17.532Z,7.57
2017-08-26T06:01:20.188Z,7.33
2017-08-26T06:02:22.845Z,7.80
2017-08-26T06:03:25.704Z,7.03
2017-08-26T06:04:29.027Z,7.60
2017-08-26T06:05:31.748Z,7.03
2017-08-26T06:06:34.915Z,6.93
2017-08-26T06:07:37.746Z,6.80
2017-08-26T06:08:40.452Z,7.80
2017-08-26T06:09:43.078Z,7.40
2017-08-26T06:10:45.709Z,6.80
2017-08-26T06:11:48.352Z,7.23
2017-08-26T06:12:51.070Z,7.37
2017-08-26T06:13:54.231Z,7.10
2017-08-26T06:14:57.558Z,7.40
2017-08-26T06:16:00.085Z,7.67
2017-08-26T06:17:02.673Z,7.40
2017-08-26T06:18:05.259Z,7.10
2017-08-26T06:19:08.571Z,6.70
2017-08-26T06:20:11.215Z,7.00
2017-08-26T06:21:14.241Z,6.93
2017-08-26T06:22:16.881Z,6.57
2017-08-26T06:23:19.461Z,6.77
2017-08-26T06:24:21.990Z,6.63
2017-08-26T06:25:24.517Z,7.40
2017-08-26T06:26:27.073Z,7.00
2017-08-26T06:27:29.614Z,7.07
2017-08-26T06:28:32.197Z,6.87
2017-08-26T06:29:34.768Z,6.40
2017-08-26T06:30:37.303Z,6.37
2017-08-26T06:31:39.915Z,6.20
2017-08-26T06:32:42.942Z,6.33
2017-08-26T06:33:45.510Z,7.00
2017-08-26T06:34:48.034Z,6.40
2017-08-26T06:35:50.631Z,6.87
2017-08-26T06:36:53.269Z,6.73
2017-08-26T06:37:55.875Z,6.70
2017-08-26T06:38:58.459Z,6.17
2017-08-26T06:40:00.986Z,6.07
2017-08-26T06:41:03.568Z,6.30
2017-08-26T06:42:06.099Z,6.10
2017-08-26T06:43:08.809Z,6.30
2017-08-26T06:44:11.452Z,6.33
2017-08-26T06:45:14.169Z,5.67
2017-08-26T06:46:16.707Z,5.50
2017-08-26T06:47:19.234Z,6.47
2017-08-26T06:48:21.845Z,6.40
2017-08-26T06:49:24.486Z,5.83
2017-08-26T06:50:27.115Z,5.80
2017-08-26T06:51:29.763Z,5.70
2017-08-26T06:52:32.378Z,6.10
2017-08-26T06:53:34.910Z,6.20
2017-08-26T06:54:37.851Z,6.03
2017-08-26T06:55:40.381Z,5.63
2017-08-26T06:56:42.897Z,5.93
2017-08-26T06:57:45.433Z,5.83
2017-08-26T06:58:48.022Z,5.83
2017-08-26T06:59:50.668Z,6.20
2017-08-26T07:00:53.243Z,5.37
2017-08-26T07:01:57.753Z,5.60
2017-08-26T07:03:00.376Z,6.20
2017-08-26T07:04:02.981Z,6.40
2017-08-26T07:05:06.246Z,4.90
2017-08-26T07:06:08.851Z,6.30
2017-08-26T07:07:14.198Z,5.67
2017-08-26T07:08:16.891Z,5.80
2017-08-26T07:09:19.700Z,5.73
2017-08-26T07:10:24.107Z,5.20
2017-08-26T07:11:26.746Z,5.60
2017-08-26T07:12:29.608Z,5.43
2017-08-26T07:13:33.102Z,5.30
2017-08-26T07:14:35.747Z,5.87
2017-08-26T07:15:38.861Z,5.90
2017-08-26T07:16:41.511Z,5.13
2017-08-26T07:17:46.133Z,5.07
2017-08-26T07:18:49.710Z,5.13
2017-08-26T07:19:53.596Z,5.50
2017-08-26T07:20:56.154Z,5.13
2017-08-26T07:21:59.017Z,5.60
2017-08-26T07:23:01.702Z,4.47
2017-08-26T07:24:04.313Z,5.60
2017-08-26T07:25:08.414Z,5.17
2017-08-26T07:26:12.115Z,5.33
2017-08-26T07:27:14.683Z,5.10
2017-08-26T07:28:17.214Z,5.63
2017-08-26T07:29:19.815Z,5.43
2017-08-26T07:30:22.443Z,5.50
2017-08-26T07:31:25.059Z,5.50
2017-08-26T07:32:28.523Z,5.17
2017-08-26T07:33:31.447Z,6.23
2017-08-26T07:34:33.984Z,5.10
2017-08-26T07:35:37.279Z,5.40
2017-08-26T07:36:39.821Z,5.33
2017-08-26T07:37:42.355Z,4.77
2017-08-26T07:38:44.977Z,5.57
2017-08-26T07:39:47.634Z,5.00
2017-08-26T07:40:50.762Z,4.60
2017-08-26T07:41:53.313Z,5.40
2017-08-26T07:42:55.910Z,5.27
2017-08-26T07:43:58.526Z,5.20
2017-08-26T07:45:01.045Z,5.30
2017-08-26T07:46:03.675Z,5.10
2017-08-26T07:47:06.303Z,4.70
2017-08-26T07:48:08.947Z,4.90
2017-08-26T07:49:11.866Z,5.00
2017-08-26T07:50:14.517Z,5.53
2017-08-26T07:51:17.135Z,5.80
2017-08-26T07:52:19.766Z,4.97
2017-08-26T07:53:22.395Z,4.80
2017-08-26T07:54:25.038Z,4.83
2017-08-26T07:55:27.642Z,5.07
2017-08-26T07:56:30.366Z,5.07
2017-08-26T07:57:32.917Z,4.73
2017-08-26T07:58:36.267Z,5.00
2017-08-26T07:59:38.812Z,5.33
2017-08-26T08:00:41.458Z,4.90
2017-08-26T08:01:44.033Z,4.80
2017-08-26T08:02:46.577Z,5.23
2017-08-26T08:03:49.880Z,4.93
2017-08-26T08:04:52.429Z,4.53
2017-08-26T08:05:55.075Z,4.93
2017-08-26T08:06:57.683Z,5.30
2017-08-26T08:08:00.294Z,4.80
2017-08-26T08:09:02.838Z,4.57
2017-08-26T08:10:05.368Z,4.43
2017-08-26T08:11:08.704Z,4.67
2017-08-26T08:12:11.235Z,4.87
2017-08-26T08:13:13.807Z,4.80
2017-08-26T08:14:17.202Z,4.97
2017-08-26T08:15:19.852Z,4.63
2017-08-26T08:16:22.388Z,3.97
2017-08-26T08:17:24.971Z,5.33
2017-08-26T08:18:27.615Z,3.87
2017-08-26T08:19:30.327Z,4.57
2017-08-26T08:20:32.863Z,4.73
2017-08-26T08:21:36.523Z,4.50
2017-08-26T08:22:39.120Z,4.23
2017-08-26T08:23:41.696Z,4.30
2017-08-26T08:24:44.298Z,5.10
2017-08-26T08:25:46.925Z,4.57
2017-08-26T08:26:49.553Z,4.90
2017-08-26T08:27:52.095Z,5.10
2017-08-26T08:28:54.646Z,4.40
2017-08-26T08:29:57.752Z,4.13
2017-08-26T08:31:00.375Z,4.37
2017-08-26T08:32:02.989Z,4.40
2017-08-26T08:33:06.435Z,4.60
2017-08-26T08:34:08.967Z,5.27
2017-08-26T08:35:11.690Z,4.30
2017-08-26T08:36:14.356Z,4.37
2017-08-26T08:37:16.918Z,4.00
2017-08-26T08:38:19.478Z,3.97
2017-08-26T08:39:22.115Z,3.83
2017-08-26T08:40:24.739Z,4.10
2017-08-26T08:41:27.361Z,4.70
2017-08-26T08:42:29.895Z,3.60
2017-08-26T08:43:32.718Z,3.73
2017-08-26T08:44:35.237Z,4.30
2017-08-26T08:45:37.867Z,4.10
2017-08-26T08:46:40.598Z,4.60
